Terminal Aerodrome Forecast
Issued by NWS

Home | Current Version | Previous Version | Text Only | Print | Product List | Glossary On
Versions: 1 2 3 4 5 6 7 8 9 10 11 12
000
FTUS46 KHNX 261100
TAFVIS
TAF
KVIS 261120Z 2612/2712 00000KT P6SM SCT250
     FM262000 31009KT P6SM BKN250
     FM270400 30004KT P6SM BKN250=

USA.gov is the U.S. government's official web portal to all federal, state and local government web resources and services.